Airways and Terminal Forecast

Significant Meteorological Information
WSPH31 RPLL 202122 
RPHI SIGMET A06 VALID 202122/210122 RPLL-
RPHI MANILA FIR EMBD TS OBS WI N1620 E12859 - N1307 E12834 - N1037 E12713 - N1237 E12348 - N1508 E12414 - N1651 E12757 - N1620 E12859 TOP FL530 MOV NNW 15KT NC=
Terminal Aerodrome Forecast
TAF RPLL

202300Z 2100/2206 07006KT 9999 FEW025 SCT100 BKN300 TX31/2106Z TN24/2122Z TEMPO 2100/2106 11012KT SCT023 BKN090 TEMPO 2106/2112 08011KT FEW023 BKN100=

TAF RPVM

202300Z 2100/2206 01008KT 9999 FEW020 OVC090 TEMPO 2100/2106 02014KT 8000 -RA SCT020 OVC090 TEMPO 2106/2112 36016G24KT 6000 -RA RA SCT018 OVC080=

TAF RPLC

202300Z 2100/2206 04008KT 9999 FEW020 BKN100 TX31/2106Z TN23/2122Z TEMPO 2100/2106 02012KT FEW020 BKN300=

TAF RPLB

202300Z 2100/2124 06010KT 9999 FEW020 SCT080 BKN300 TX30/2106Z TN24/2122Z TEMPO 2100/2106 05015KT 9000 -SHRA SCT020 BKN080=

TAF RPLI

202300Z 2100/2124 35005KT 9999 FEW018 SCT290 TEMPO 2100/2106 10010KT FEW018 SCT100=

TAF RPVP

202300Z 2100/2124 35006KT 9999 FEW019 SCT250 TEMPO 2100/2106 29011KT FEW019 BKN080=

TAF RPVD

202300Z 2100/2124 32010KT 9999 SCT015 BKN080 TEMPO 2100/2106 34014G20KT 8000 -RA SCT014 OVC080=

TAF RPMR

202300Z 2100/2124 22008KT 9999 FEW018 SCT080 BKN250 TEMPO 2100/2106 16012KT 9000 -SHRA FEW017CB SCT018 BKN080 OVC240=

TAF RPMD

202300Z 2100/2124 18006KT 9999 FEW016 SCT090 BKN290 TEMPO 2100/2106 16012KT 8000 SHRA FEW015CB SCT016 BKN090 OVC290=

TAF RPMZ

202300Z 2100/2124 30006KT 9999 FEW017 SCT090 BKN300 TEMPO 2100/2106 26009KT 9000 -SHRA FEW016CB SCT017 BKN090=

RPLL FORECAST TAKE-OFF CONDITION
TIME

(UTC)

WIND

(dddffKT)

TEMP

(°C)

QNH

(hPa)

TIME

(UTC)

WIND

(dddffKT)

TEMP

(°C)

QNH

(hPa)

0000

07004KT

27.0

1012.0

0400

10012KT

30.0

1010.0

0100

08006KT

28.0

1012.0

0500

11008KT

31.0

1010.0

0200

11007KT

29.0

1011.0

0600

10011KT

31.0

1009.0

0300

10005KT

30.0

1011.0

0700

08012KT

31.0

1008.0

ISSUED AT NAIA AMSS-WD/PAGASA-DOST FOR 2300UTC 20 JANUARY 2019

 PREPARED BY:  CHH                                          CHECKED BY:   AYN